»·PEaware :: N6BF KEGE-KCOS

N6BF :: KEGE-KCOS

FLIGHT INFORMATION

Flight Status: Arrived
Operator: Privately registered:
United States
More flights under this callsign
Pilot: Ben F. (13029)
Aircraft: SOCATA TBM-900
(TBM9)
More flights by this aircraft type
Origin: KEGE Eagle Co Regl
United States
Destination: KCOS City Of Colorado Springs Mun
United States
More flights between these airports :: More routes between these airports
Route: GYPSM6 RLG TOMSN FQF BRK
File this flight plan on PilotEdge
Remarks: RMK / SIMBRIEF
Altitude:
(Current/Filed)
29,000ft
Speed:
(Current/Filed)
312kts
Departed: 26-Nov-19 11:23 AM
Arrived: 26-Nov-19 12:13 PM
Distance/Time
Traveled:
114nm/0:50
Distance/Time
To Go:
Arrived

Flight Plot

Page will automatically refresh every two minutes.

Flight plan parsing failed; only flown route is shown


Map Options




Map Legend


Flown Route
Filed Route
Departure Airport
Arrival Airport
Navaid (VOR, NDB)
Fix

Horizontal Profiles

Position Reports

Time Latitude Longitude Heading Altitude Ground
Speed
26-Nov-19 11:01 39.641247 -106.908352 262 6548ft 0kts
26-Nov-19 11:02 39.641247 -106.908352 262 6548ft 0kts
26-Nov-19 11:03 39.641247 -106.908352 262 6548ft 0kts
26-Nov-19 11:04 39.641247 -106.908353 262 6548ft 0kts
26-Nov-19 11:05 39.641247 -106.908353 262 6548ft 0kts
26-Nov-19 11:06 39.641247 -106.908353 262 6548ft 0kts
26-Nov-19 11:07 39.641247 -106.908353 262 6548ft 0kts
26-Nov-19 11:08 39.641247 -106.908353 262 6548ft 0kts
26-Nov-19 11:09 39.641247 -106.908353 262 6548ft 0kts
26-Nov-19 11:10 39.641247 -106.908353 262 6548ft 0kts
26-Nov-19 11:11 39.641247 -106.908353 262 6548ft 0kts
26-Nov-19 11:12 39.641247 -106.908353 262 6548ft 0kts
26-Nov-19 11:13 39.641247 -106.908353 262 6548ft 0kts
26-Nov-19 11:14 39.641247 -106.908353 262 6548ft 0kts
26-Nov-19 11:15 39.641247 -106.908353 262 6548ft 0kts
26-Nov-19 11:16 39.641247 -106.908353 262 6548ft 0kts
26-Nov-19 11:17 39.641247 -106.908353 262 6548ft 0kts
26-Nov-19 11:18 39.641243 -106.908395 263 6548ft 2kts
26-Nov-19 11:19 39.642916 -106.903999 82 6548ft 34kts
26-Nov-19 11:20 39.643450 -106.900139 348 6548ft 0kts
26-Nov-19 11:21 39.643737 -106.900232 349 6548ft 10kts
26-Nov-19 11:22 39.644057 -106.903913 261 6548ft 72kts
26-Nov-19 11:23 39.626493 -106.948250 224 8139ft 177kts
26-Nov-19 11:24 39.597707 -106.996992 286 10766ft 161kts
26-Nov-19 11:25 39.630484 -107.029428 335 13490ft 145kts
26-Nov-19 11:26 39.671918 -107.051528 336 15016ft 191kts
26-Nov-19 11:27 39.731741 -107.082760 336 15846ft 229kts
26-Nov-19 11:28 39.779882 -107.046428 60 17730ft 237kts
26-Nov-19 11:29 39.809417 -106.966905 59 19699ft 241kts
26-Nov-19 11:30 39.839421 -106.886072 59 21653ft 239kts
26-Nov-19 11:31 39.869081 -106.806562 70 23555ft 235kts
26-Nov-19 11:32 39.894056 -106.726675 78 25485ft 229kts
26-Nov-19 11:33 39.888410 -106.646435 104 27422ft 215kts
26-Nov-19 11:34 39.880774 -106.566393 103 28998ft 233kts
26-Nov-19 11:35 39.871590 -106.464763 101 28973ft 306kts
26-Nov-19 11:36 39.861239 -106.350313 100 28946ft 327kts
26-Nov-19 11:37 39.850521 -106.233383 101 28930ft 332kts
26-Nov-19 11:38 39.839196 -106.111377 101 28929ft 334kts
26-Nov-19 11:39 39.827649 -105.988511 101 28927ft 334kts
26-Nov-19 11:40 39.816009 -105.866018 101 28929ft 334kts
26-Nov-19 11:41 39.804223 -105.743401 101 28930ft 334kts
26-Nov-19 11:42 39.792246 -105.620221 101 28933ft 334kts
26-Nov-19 11:43 39.780166 -105.497326 101 28975ft 333kts
26-Nov-19 11:44 39.768237 -105.377270 101 29029ft 333kts
26-Nov-19 11:45 39.756210 -105.257483 102 29037ft 334kts
26-Nov-19 11:46 39.743871 -105.136037 101 28737ft 341kts
26-Nov-19 11:47 39.731281 -105.012898 102 28738ft 334kts
26-Nov-19 11:48 39.718426 -104.889798 97 28729ft 349kts
26-Nov-19 11:49 39.704875 -104.760177 98 28728ft 360kts
26-Nov-19 11:50 39.649793 -104.650408 150 27676ft 367kts
26-Nov-19 11:51 39.553577 -104.619032 194 25932ft 349kts
26-Nov-19 11:52 39.453040 -104.624965 184 24112ft 358kts
26-Nov-19 11:53 39.350621 -104.626730 183 22194ft 359kts
26-Nov-19 11:54 39.249342 -104.628413 182 20057ft 356kts
26-Nov-19 11:55 39.147850 -104.629597 180 17909ft 354kts
26-Nov-19 11:56 39.049957 -104.629865 179 16966ft 324kts
26-Nov-19 11:57 38.962253 -104.622169 167 16995ft 310kts
26-Nov-19 11:58 38.872570 -104.594926 167 15289ft 328kts
26-Nov-19 11:59 38.783454 -104.568060 167 13258ft 321kts
26-Nov-19 12:00 38.695348 -104.558108 177 11192ft 308kts
26-Nov-19 12:01 38.607526 -104.552146 177 9128ft 300kts
26-Nov-19 12:02 38.527054 -104.547149 182 8998ft 278kts
26-Nov-19 12:03 38.493639 -104.622287 267 9002ft 255kts
26-Nov-19 12:04 38.484596 -104.712689 269 8991ft 239kts
26-Nov-19 12:05 38.528464 -104.732845 17 8988ft 192kts
26-Nov-19 12:06 38.577655 -104.708469 17 8988ft 183kts
26-Nov-19 12:07 38.627339 -104.703634 345 8989ft 177kts
26-Nov-19 12:08 38.676375 -104.718919 345 8808ft 183kts
26-Nov-19 12:09 38.728461 -104.719946 5 7226ft 142kts
26-Nov-19 12:10 38.760127 -104.715474 358 7231ft 109kts
26-Nov-19 12:11 38.787593 -104.715907 356 6295ft 101kts
26-Nov-19 12:12 38.802119 -104.715955 1 6098ft 10kts
26-Nov-19 12:13 38.804347 -104.719744 343 6098ft 18kts
26-Nov-19 12:14 38.807970 -104.720002 358 6098ft 0kts
26-Nov-19 12:15 38.807970 -104.720002 358 6098ft 0kts
26-Nov-19 12:16 38.807970 -104.720002 358 6098ft 0kts
26-Nov-19 12:17 38.807970 -104.720002 358 6098ft 0kts

Navigation Log

Ident Type
Flight plan parsing failed, navigation log unavailable